sensor_id;sensor_type;location;lat;lon;timestamp;P1;durP1;ratioP1;P2;durP2;ratioP2
56455;SDS011;42354;53.218;6.564;2023-11-22T00:00:34;18.95;;;8.98;;
56455;SDS011;42354;53.218;6.564;2023-11-22T00:03:00;17.90;;;8.55;;
56455;SDS011;42354;53.218;6.564;2023-11-22T00:05:25;16.90;;;9.75;;
56455;SDS011;42354;53.218;6.564;2023-11-22T00:07:51;16.27;;;8.68;;
56455;SDS011;42354;53.218;6.564;2023-11-22T00:10:16;19.30;;;9.77;;
56455;SDS011;42354;53.218;6.564;2023-11-22T00:12:42;21.77;;;10.38;;
56455;SDS011;42354;53.218;6.564;2023-11-22T00:15:07;25.73;;;11.23;;
56455;SDS011;42354;53.218;6.564;2023-11-22T00:17:34;23.20;;;9.70;;
56455;SDS011;42354;53.218;6.564;2023-11-22T00:20:00;17.00;;;9.05;;
56455;SDS011;42354;53.218;6.564;2023-11-22T00:22:30;19.90;;;9.43;;
56455;SDS011;42354;53.218;6.564;2023-11-22T00:24:57;20.40;;;8.90;;
56455;SDS011;42354;53.218;6.564;2023-11-22T00:27:26;17.63;;;9.02;;
56455;SDS011;42354;53.218;6.564;2023-11-22T00:29:51;17.52;;;8.82;;
56455;SDS011;42354;53.218;6.564;2023-11-22T00:32:17;17.33;;;8.30;;
56455;SDS011;42354;53.218;6.564;2023-11-22T00:34:42;19.45;;;9.70;;
56455;SDS011;42354;53.218;6.564;2023-11-22T00:37:08;21.10;;;9.52;;
56455;SDS011;42354;53.218;6.564;2023-11-22T00:39:33;17.98;;;9.95;;
56455;SDS011;42354;53.218;6.564;2023-11-22T00:41:59;18.17;;;9.07;;
56455;SDS011;42354;53.218;6.564;2023-11-22T00:44:24;16.15;;;8.90;;
56455;SDS011;42354;53.218;6.564;2023-11-22T00:46:49;15.65;;;8.27;;
56455;SDS011;42354;53.218;6.564;2023-11-22T00:49:15;22.00;;;9.18;;
56455;SDS011;42354;53.218;6.564;2023-11-22T00:51:40;20.25;;;8.98;;
56455;SDS011;42354;53.218;6.564;2023-11-22T00:54:05;16.70;;;8.65;;
56455;SDS011;42354;53.218;6.564;2023-11-22T00:56:31;17.20;;;9.07;;
56455;SDS011;42354;53.218;6.564;2023-11-22T00:58:57;15.38;;;8.50;;
56455;SDS011;42354;53.218;6.564;2023-11-22T01:01:24;19.17;;;9.00;;
56455;SDS011;42354;53.218;6.564;2023-11-22T01:03:50;26.95;;;10.60;;
56455;SDS011;42354;53.218;6.564;2023-11-22T01:06:15;20.15;;;10.07;;
56455;SDS011;42354;53.218;6.564;2023-11-22T01:08:43;17.50;;;8.65;;
56455;SDS011;42354;53.218;6.564;2023-11-22T01:11:08;17.58;;;9.13;;
56455;SDS011;42354;53.218;6.564;2023-11-22T01:13:33;18.90;;;9.50;;
56455;SDS011;42354;53.218;6.564;2023-11-22T01:16:07;21.13;;;9.98;;
56455;SDS011;42354;53.218;6.564;2023-11-22T01:18:32;19.90;;;9.45;;
56455;SDS011;42354;53.218;6.564;2023-11-22T01:20:57;28.52;;;9.20;;
56455;SDS011;42354;53.218;6.564;2023-11-22T01:23:23;19.02;;;9.18;;
56455;SDS011;42354;53.218;6.564;2023-11-22T01:25:48;19.83;;;9.73;;
56455;SDS011;42354;53.218;6.564;2023-11-22T01:28:15;21.85;;;11.05;;
56455;SDS011;42354;53.218;6.564;2023-11-22T01:30:42;24.40;;;10.88;;
56455;SDS011;42354;53.218;6.564;2023-11-22T01:33:10;23.42;;;10.75;;
56455;SDS011;42354;53.218;6.564;2023-11-22T01:35:36;22.70;;;11.00;;
56455;SDS011;42354;53.218;6.564;2023-11-22T01:38:01;23.95;;;11.93;;
56455;SDS011;42354;53.218;6.564;2023-11-22T01:40:29;22.05;;;10.18;;
56455;SDS011;42354;53.218;6.564;2023-11-22T01:42:55;22.27;;;10.30;;
56455;SDS011;42354;53.218;6.564;2023-11-22T01:45:20;18.88;;;9.07;;
56455;SDS011;42354;53.218;6.564;2023-11-22T01:47:45;20.05;;;9.20;;
56455;SDS011;42354;53.218;6.564;2023-11-22T01:50:11;23.60;;;11.40;;
56455;SDS011;42354;53.218;6.564;2023-11-22T01:52:40;20.67;;;9.77;;
56455;SDS011;42354;53.218;6.564;2023-11-22T01:55:06;20.60;;;10.40;;
56455;SDS011;42354;53.218;6.564;2023-11-22T01:57:34;25.58;;;11.40;;
56455;SDS011;42354;53.218;6.564;2023-11-22T02:00:02;22.67;;;11.50;;
56455;SDS011;42354;53.218;6.564;2023-11-22T02:02:31;25.52;;;9.27;;
56455;SDS011;42354;53.218;6.564;2023-11-22T02:04:58;21.25;;;10.15;;
56455;SDS011;42354;53.218;6.564;2023-11-22T02:07:23;21.52;;;9.98;;
56455;SDS011;42354;53.218;6.564;2023-11-22T02:09:48;21.85;;;10.50;;
56455;SDS011;42354;53.218;6.564;2023-11-22T02:12:14;22.42;;;10.10;;
56455;SDS011;42354;53.218;6.564;2023-11-22T02:14:40;27.13;;;11.00;;
56455;SDS011;42354;53.218;6.564;2023-11-22T02:17:05;26.83;;;11.98;;
56455;SDS011;42354;53.218;6.564;2023-11-22T02:19:30;30.80;;;12.93;;
56455;SDS011;42354;53.218;6.564;2023-11-22T02:21:56;22.85;;;10.95;;
56455;SDS011;42354;53.218;6.564;2023-11-22T02:24:21;25.52;;;11.77;;
56455;SDS011;42354;53.218;6.564;2023-11-22T02:26:47;23.02;;;10.30;;
56455;SDS011;42354;53.218;6.564;2023-11-22T02:29:12;25.92;;;11.02;;
56455;SDS011;42354;53.218;6.564;2023-11-22T02:31:39;18.70;;;9.32;;
56455;SDS011;42354;53.218;6.564;2023-11-22T02:34:06;19.50;;;9.40;;
56455;SDS011;42354;53.218;6.564;2023-11-22T02:36:31;22.13;;;9.90;;
56455;SDS011;42354;53.218;6.564;2023-11-22T02:38:57;35.53;;;15.90;;
56455;SDS011;42354;53.218;6.564;2023-11-22T02:41:23;27.08;;;12.23;;
56455;SDS011;42354;53.218;6.564;2023-11-22T02:43:50;32.38;;;12.30;;
56455;SDS011;42354;53.218;6.564;2023-11-22T02:46:16;29.80;;;12.63;;
56455;SDS011;42354;53.218;6.564;2023-11-22T02:48:41;27.90;;;10.80;;
56455;SDS011;42354;53.218;6.564;2023-11-22T02:51:06;23.02;;;10.45;;
56455;SDS011;42354;53.218;6.564;2023-11-22T02:53:32;27.92;;;11.23;;
56455;SDS011;42354;53.218;6.564;2023-11-22T02:56:00;26.88;;;11.57;;
56455;SDS011;42354;53.218;6.564;2023-11-22T02:58:28;28.73;;;12.77;;
56455;SDS011;42354;53.218;6.564;2023-11-22T03:00:54;26.90;;;12.43;;
56455;SDS011;42354;53.218;6.564;2023-11-22T03:03:22;20.95;;;10.15;;
56455;SDS011;42354;53.218;6.564;2023-11-22T03:05:48;19.88;;;9.18;;
56455;SDS011;42354;53.218;6.564;2023-11-22T03:08:15;25.67;;;9.32;;
56455;SDS011;42354;53.218;6.564;2023-11-22T03:10:41;25.30;;;11.10;;
56455;SDS011;42354;53.218;6.564;2023-11-22T03:13:07;26.20;;;11.35;;
56455;SDS011;42354;53.218;6.564;2023-11-22T03:15:33;27.58;;;11.80;;
56455;SDS011;42354;53.218;6.564;2023-11-22T03:17:59;26.58;;;12.07;;
56455;SDS011;42354;53.218;6.564;2023-11-22T03:20:25;22.67;;;10.80;;
56455;SDS011;42354;53.218;6.564;2023-11-22T03:22:50;26.27;;;11.68;;
56455;SDS011;42354;53.218;6.564;2023-11-22T03:25:15;22.52;;;11.38;;
56455;SDS011;42354;53.218;6.564;2023-11-22T03:27:41;24.83;;;10.38;;
56455;SDS011;42354;53.218;6.564;2023-11-22T03:30:07;21.92;;;10.98;;
56455;SDS011;42354;53.218;6.564;2023-11-22T03:32:37;24.95;;;11.18;;
56455;SDS011;42354;53.218;6.564;2023-11-22T03:35:04;26.13;;;11.18;;
56455;SDS011;42354;53.218;6.564;2023-11-22T03:37:31;23.38;;;10.70;;
56455;SDS011;42354;53.218;6.564;2023-11-22T03:39:57;27.85;;;11.32;;
56455;SDS011;42354;53.218;6.564;2023-11-22T03:42:22;30.73;;;11.65;;
56455;SDS011;42354;53.218;6.564;2023-11-22T03:44:48;26.67;;;9.98;;
56455;SDS011;42354;53.218;6.564;2023-11-22T03:47:15;21.10;;;10.57;;
56455;SDS011;42354;53.218;6.564;2023-11-22T03:49:40;23.83;;;11.23;;
56455;SDS011;42354;53.218;6.564;2023-11-22T03:52:08;25.55;;;10.80;;
56455;SDS011;42354;53.218;6.564;2023-11-22T03:54:33;24.38;;;10.73;;
56455;SDS011;42354;53.218;6.564;2023-11-22T03:56:59;22.10;;;10.98;;
56455;SDS011;42354;53.218;6.564;2023-11-22T03:59:24;25.10;;;10.20;;
56455;SDS011;42354;53.218;6.564;2023-11-22T04:01:49;24.08;;;11.00;;
56455;SDS011;42354;53.218;6.564;2023-11-22T04:04:16;23.23;;;10.75;;
56455;SDS011;42354;53.218;6.564;2023-11-22T04:06:41;26.65;;;11.10;;
56455;SDS011;42354;53.218;6.564;2023-11-22T04:09:07;27.42;;;12.27;;
56455;SDS011;42354;53.218;6.564;2023-11-22T04:11:33;25.88;;;11.07;;
56455;SDS011;42354;53.218;6.564;2023-11-22T04:13:59;26.98;;;11.25;;
56455;SDS011;42354;53.218;6.564;2023-11-22T04:16:25;24.65;;;11.90;;
56455;SDS011;42354;53.218;6.564;2023-11-22T04:18:51;26.80;;;12.15;;
56455;SDS011;42354;53.218;6.564;2023-11-22T04:21:16;25.92;;;11.07;;
56455;SDS011;42354;53.218;6.564;2023-11-22T04:23:41;24.55;;;11.38;;
56455;SDS011;42354;53.218;6.564;2023-11-22T04:26:07;26.48;;;11.23;;
56455;SDS011;42354;53.218;6.564;2023-11-22T04:28:33;25.50;;;11.30;;
56455;SDS011;42354;53.218;6.564;2023-11-22T04:30:59;26.58;;;12.20;;
56455;SDS011;42354;53.218;6.564;2023-11-22T04:33:25;25.63;;;11.48;;
56455;SDS011;42354;53.218;6.564;2023-11-22T04:35:53;31.58;;;13.07;;
56455;SDS011;42354;53.218;6.564;2023-11-22T04:38:19;28.70;;;12.25;;
56455;SDS011;42354;53.218;6.564;2023-11-22T04:40:44;28.10;;;12.90;;
56455;SDS011;42354;53.218;6.564;2023-11-22T04:43:10;33.70;;;13.35;;
56455;SDS011;42354;53.218;6.564;2023-11-22T04:45:35;33.45;;;14.30;;
56455;SDS011;42354;53.218;6.564;2023-11-22T04:48:01;33.00;;;14.15;;
56455;SDS011;42354;53.218;6.564;2023-11-22T04:50:27;34.55;;;14.27;;
56455;SDS011;42354;53.218;6.564;2023-11-22T04:52:52;39.75;;;15.02;;
56455;SDS011;42354;53.218;6.564;2023-11-22T04:55:18;30.40;;;13.45;;
56455;SDS011;42354;53.218;6.564;2023-11-22T04:57:49;33.05;;;14.13;;
56455;SDS011;42354;53.218;6.564;2023-11-22T05:00:15;33.83;;;14.13;;
56455;SDS011;42354;53.218;6.564;2023-11-22T05:02:40;34.15;;;12.80;;
56455;SDS011;42354;53.218;6.564;2023-11-22T05:05:06;26.65;;;12.40;;
56455;SDS011;42354;53.218;6.564;2023-11-22T05:07:32;34.70;;;13.73;;
56455;SDS011;42354;53.218;6.564;2023-11-22T05:09:57;32.40;;;13.55;;
56455;SDS011;42354;53.218;6.564;2023-11-22T05:12:23;32.97;;;14.40;;
56455;SDS011;42354;53.218;6.564;2023-11-22T05:14:48;31.83;;;13.73;;
56455;SDS011;42354;53.218;6.564;2023-11-22T05:17:14;31.95;;;14.25;;
56455;SDS011;42354;53.218;6.564;2023-11-22T05:19:39;30.67;;;14.05;;
56455;SDS011;42354;53.218;6.564;2023-11-22T05:22:04;30.10;;;12.80;;
56455;SDS011;42354;53.218;6.564;2023-11-22T05:24:30;33.25;;;14.18;;
56455;SDS011;42354;53.218;6.564;2023-11-22T05:26:55;29.55;;;13.20;;
56455;SDS011;42354;53.218;6.564;2023-11-22T05:29:21;31.40;;;13.38;;
56455;SDS011;42354;53.218;6.564;2023-11-22T05:31:46;32.42;;;14.48;;
56455;SDS011;42354;53.218;6.564;2023-11-22T05:34:12;33.10;;;14.13;;
56455;SDS011;42354;53.218;6.564;2023-11-22T05:36:38;34.00;;;15.27;;
56455;SDS011;42354;53.218;6.564;2023-11-22T05:39:03;31.48;;;15.07;;
56455;SDS011;42354;53.218;6.564;2023-11-22T05:41:29;32.72;;;15.25;;
56455;SDS011;42354;53.218;6.564;2023-11-22T05:43:54;36.13;;;14.32;;
56455;SDS011;42354;53.218;6.564;2023-11-22T05:46:21;39.20;;;16.17;;
56455;SDS011;42354;53.218;6.564;2023-11-22T05:48:50;37.08;;;15.43;;
56455;SDS011;42354;53.218;6.564;2023-11-22T05:51:16;36.75;;;15.20;;
56455;SDS011;42354;53.218;6.564;2023-11-22T05:53:42;38.00;;;15.93;;
56455;SDS011;42354;53.218;6.564;2023-11-22T05:56:08;34.63;;;15.15;;
56455;SDS011;42354;53.218;6.564;2023-11-22T05:58:34;35.90;;;16.15;;
56455;SDS011;42354;53.218;6.564;2023-11-22T06:01:03;39.13;;;15.88;;
56455;SDS011;42354;53.218;6.564;2023-11-22T06:03:31;41.45;;;16.58;;
56455;SDS011;42354;53.218;6.564;2023-11-22T06:05:57;41.60;;;17.25;;
56455;SDS011;42354;53.218;6.564;2023-11-22T06:08:25;43.88;;;16.40;;
56455;SDS011;42354;53.218;6.564;2023-11-22T06:10:50;46.70;;;17.00;;
56455;SDS011;42354;53.218;6.564;2023-11-22T06:13:18;39.15;;;16.08;;
56455;SDS011;42354;53.218;6.564;2023-11-22T06:15:44;38.42;;;16.45;;
56455;SDS011;42354;53.218;6.564;2023-11-22T06:18:10;39.47;;;16.95;;
56455;SDS011;42354;53.218;6.564;2023-11-22T06:20:35;42.67;;;18.60;;
56455;SDS011;42354;53.218;6.564;2023-11-22T06:23:00;44.67;;;17.38;;
56455;SDS011;42354;53.218;6.564;2023-11-22T06:25:26;43.28;;;17.73;;
56455;SDS011;42354;53.218;6.564;2023-11-22T06:27:52;37.60;;;16.63;;
56455;SDS011;42354;53.218;6.564;2023-11-22T06:30:17;39.80;;;18.08;;
56455;SDS011;42354;53.218;6.564;2023-11-22T06:32:43;44.75;;;17.48;;
56455;SDS011;42354;53.218;6.564;2023-11-22T06:35:09;39.15;;;17.83;;
56455;SDS011;42354;53.218;6.564;2023-11-22T06:37:36;40.88;;;17.33;;
56455;SDS011;42354;53.218;6.564;2023-11-22T06:40:02;43.33;;;17.50;;
56455;SDS011;42354;53.218;6.564;2023-11-22T06:42:28;45.58;;;18.30;;
56455;SDS011;42354;53.218;6.564;2023-11-22T06:44:54;42.58;;;17.35;;
56455;SDS011;42354;53.218;6.564;2023-11-22T06:47:23;47.90;;;18.15;;
56455;SDS011;42354;53.218;6.564;2023-11-22T06:49:49;40.42;;;16.50;;
56455;SDS011;42354;53.218;6.564;2023-11-22T06:52:14;42.00;;;17.75;;
56455;SDS011;42354;53.218;6.564;2023-11-22T06:54:39;42.20;;;18.15;;
56455;SDS011;42354;53.218;6.564;2023-11-22T06:57:05;43.83;;;18.10;;
56455;SDS011;42354;53.218;6.564;2023-11-22T06:59:30;47.90;;;19.05;;
56455;SDS011;42354;53.218;6.564;2023-11-22T07:01:55;46.03;;;18.27;;
56455;SDS011;42354;53.218;6.564;2023-11-22T07:04:21;48.05;;;18.40;;
56455;SDS011;42354;53.218;6.564;2023-11-22T07:06:48;43.70;;;18.52;;
56455;SDS011;42354;53.218;6.564;2023-11-22T07:09:14;50.28;;;19.67;;
56455;SDS011;42354;53.218;6.564;2023-11-22T07:11:39;48.42;;;19.00;;
56455;SDS011;42354;53.218;6.564;2023-11-22T07:14:05;42.78;;;19.83;;
56455;SDS011;42354;53.218;6.564;2023-11-22T07:16:30;49.80;;;20.27;;
56455;SDS011;42354;53.218;6.564;2023-11-22T07:18:57;51.88;;;19.27;;
56455;SDS011;42354;53.218;6.564;2023-11-22T07:21:25;47.35;;;17.90;;
56455;SDS011;42354;53.218;6.564;2023-11-22T07:23:53;49.33;;;19.27;;
56455;SDS011;42354;53.218;6.564;2023-11-22T07:26:19;42.67;;;18.45;;
56455;SDS011;42354;53.218;6.564;2023-11-22T07:28:45;42.58;;;18.08;;
56455;SDS011;42354;53.218;6.564;2023-11-22T07:31:10;46.72;;;17.95;;
56455;SDS011;42354;53.218;6.564;2023-11-22T07:33:36;45.70;;;18.60;;
56455;SDS011;42354;53.218;6.564;2023-11-22T07:36:02;41.35;;;17.88;;
56455;SDS011;42354;53.218;6.564;2023-11-22T07:38:28;44.13;;;18.13;;
56455;SDS011;42354;53.218;6.564;2023-11-22T07:40:57;42.22;;;18.40;;
56455;SDS011;42354;53.218;6.564;2023-11-22T07:43:23;45.20;;;18.10;;
56455;SDS011;42354;53.218;6.564;2023-11-22T07:45:49;44.97;;;19.10;;
56455;SDS011;42354;53.218;6.564;2023-11-22T07:48:16;37.40;;;17.20;;
56455;SDS011;42354;53.218;6.564;2023-11-22T07:50:41;39.17;;;16.40;;
56455;SDS011;42354;53.218;6.564;2023-11-22T07:53:10;41.95;;;18.23;;
56455;SDS011;42354;53.218;6.564;2023-11-22T07:55:39;38.38;;;17.33;;
56455;SDS011;42354;53.218;6.564;2023-11-22T07:58:06;40.00;;;17.10;;
56455;SDS011;42354;53.218;6.564;2023-11-22T08:00:33;37.45;;;16.98;;
56455;SDS011;42354;53.218;6.564;2023-11-22T08:03:02;40.38;;;18.13;;
56455;SDS011;42354;53.218;6.564;2023-11-22T08:05:30;41.72;;;17.98;;
56455;SDS011;42354;53.218;6.564;2023-11-22T08:08:04;40.42;;;18.30;;
56455;SDS011;42354;53.218;6.564;2023-11-22T08:10:36;38.88;;;18.25;;
56455;SDS011;42354;53.218;6.564;2023-11-22T08:13:01;38.08;;;16.98;;
56455;SDS011;42354;53.218;6.564;2023-11-22T08:15:28;36.03;;;16.35;;
56455;SDS011;42354;53.218;6.564;2023-11-22T08:17:53;39.78;;;17.25;;
56455;SDS011;42354;53.218;6.564;2023-11-22T08:20:19;39.42;;;17.33;;
56455;SDS011;42354;53.218;6.564;2023-11-22T08:22:45;41.03;;;17.73;;
56455;SDS011;42354;53.218;6.564;2023-11-22T08:25:11;38.33;;;18.08;;
56455;SDS011;42354;53.218;6.564;2023-11-22T08:27:38;37.20;;;16.90;;
56455;SDS011;42354;53.218;6.564;2023-11-22T08:30:09;37.92;;;17.55;;
56455;SDS011;42354;53.218;6.564;2023-11-22T08:32:47;41.22;;;18.25;;
56455;SDS011;42354;53.218;6.564;2023-11-22T08:35:18;33.28;;;16.30;;
56455;SDS011;42354;53.218;6.564;2023-11-22T08:37:45;36.08;;;16.67;;
56455;SDS011;42354;53.218;6.564;2023-11-22T08:40:12;46.00;;;17.25;;
56455;SDS011;42354;53.218;6.564;2023-11-22T08:42:41;40.95;;;18.05;;
56455;SDS011;42354;53.218;6.564;2023-11-22T08:45:07;39.88;;;17.27;;
56455;SDS011;42354;53.218;6.564;2023-11-22T08:47:33;37.67;;;17.55;;
56455;SDS011;42354;53.218;6.564;2023-11-22T08:49:59;41.63;;;17.25;;
56455;SDS011;42354;53.218;6.564;2023-11-22T08:52:24;36.08;;;16.90;;
56455;SDS011;42354;53.218;6.564;2023-11-22T08:54:50;35.22;;;16.70;;
56455;SDS011;42354;53.218;6.564;2023-11-22T08:57:16;36.25;;;16.15;;
56455;SDS011;42354;53.218;6.564;2023-11-22T08:59:42;38.30;;;16.92;;
56455;SDS011;42354;53.218;6.564;2023-11-22T09:02:08;36.55;;;17.00;;
56455;SDS011;42354;53.218;6.564;2023-11-22T09:04:33;37.72;;;16.30;;
56455;SDS011;42354;53.218;6.564;2023-11-22T09:06:58;36.83;;;15.98;;
56455;SDS011;42354;53.218;6.564;2023-11-22T09:09:24;40.50;;;16.48;;
56455;SDS011;42354;53.218;6.564;2023-11-22T09:11:56;39.95;;;16.52;;
56455;SDS011;42354;53.218;6.564;2023-11-22T09:14:24;35.47;;;16.23;;
56455;SDS011;42354;53.218;6.564;2023-11-22T09:16:50;31.52;;;14.45;;
56455;SDS011;42354;53.218;6.564;2023-11-22T09:19:22;34.28;;;15.98;;
56455;SDS011;42354;53.218;6.564;2023-11-22T09:21:49;35.22;;;15.02;;
56455;SDS011;42354;53.218;6.564;2023-11-22T09:24:15;32.80;;;15.32;;
56455;SDS011;42354;53.218;6.564;2023-11-22T09:26:41;31.80;;;16.25;;
56455;SDS011;42354;53.218;6.564;2023-11-22T09:29:07;34.60;;;15.75;;
56455;SDS011;42354;53.218;6.564;2023-11-22T09:31:33;32.38;;;15.68;;
56455;SDS011;42354;53.218;6.564;2023-11-22T09:33:59;27.90;;;14.23;;
56455;SDS011;42354;53.218;6.564;2023-11-22T09:36:26;32.17;;;14.93;;
56455;SDS011;42354;53.218;6.564;2023-11-22T09:38:52;32.75;;;14.45;;
56455;SDS011;42354;53.218;6.564;2023-11-22T09:41:18;28.55;;;13.77;;
56455;SDS011;42354;53.218;6.564;2023-11-22T09:43:44;28.30;;;14.68;;
56455;SDS011;42354;53.218;6.564;2023-11-22T09:46:14;28.08;;;14.32;;
56455;SDS011;42354;53.218;6.564;2023-11-22T09:48:42;33.75;;;16.10;;
56455;SDS011;42354;53.218;6.564;2023-11-22T09:53:36;29.52;;;14.30;;
56455;SDS011;42354;53.218;6.564;2023-11-22T09:56:06;30.52;;;14.23;;
56455;SDS011;42354;53.218;6.564;2023-11-22T09:58:33;28.65;;;13.90;;
56455;SDS011;42354;53.218;6.564;2023-11-22T10:00:59;28.67;;;13.73;;
56455;SDS011;42354;53.218;6.564;2023-11-22T10:03:26;27.85;;;14.00;;
56455;SDS011;42354;53.218;6.564;2023-11-22T10:05:54;27.80;;;14.52;;
56455;SDS011;42354;53.218;6.564;2023-11-22T10:08:21;36.72;;;15.25;;
56455;SDS011;42354;53.218;6.564;2023-11-22T10:10:47;25.42;;;13.27;;
56455;SDS011;42354;53.218;6.564;2023-11-22T10:13:16;25.67;;;13.32;;
56455;SDS011;42354;53.218;6.564;2023-11-22T10:15:45;26.35;;;13.48;;
56455;SDS011;42354;53.218;6.564;2023-11-22T10:18:11;30.35;;;13.88;;
56455;SDS011;42354;53.218;6.564;2023-11-22T10:20:37;25.30;;;13.15;;
56455;SDS011;42354;53.218;6.564;2023-11-22T10:23:04;25.67;;;13.05;;
56455;SDS011;42354;53.218;6.564;2023-11-22T10:25:33;25.60;;;12.35;;
56455;SDS011;42354;53.218;6.564;2023-11-22T10:27:59;26.85;;;13.25;;
56455;SDS011;42354;53.218;6.564;2023-11-22T10:30:25;25.52;;;12.95;;
56455;SDS011;42354;53.218;6.564;2023-11-22T10:32:53;27.10;;;12.68;;
56455;SDS011;42354;53.218;6.564;2023-11-22T10:35:20;28.30;;;13.32;;
56455;SDS011;42354;53.218;6.564;2023-11-22T10:37:47;26.52;;;12.80;;
56455;SDS011;42354;53.218;6.564;2023-11-22T10:40:13;26.75;;;13.68;;
56455;SDS011;42354;53.218;6.564;2023-11-22T10:42:42;24.50;;;13.20;;
56455;SDS011;42354;53.218;6.564;2023-11-22T10:45:11;25.80;;;12.52;;
56455;SDS011;42354;53.218;6.564;2023-11-22T10:47:39;25.25;;;12.45;;
56455;SDS011;42354;53.218;6.564;2023-11-22T10:50:06;23.38;;;12.38;;
56455;SDS011;42354;53.218;6.564;2023-11-22T10:52:33;25.27;;;12.13;;
56455;SDS011;42354;53.218;6.564;2023-11-22T10:55:01;24.70;;;11.10;;
56455;SDS011;42354;53.218;6.564;2023-11-22T10:57:31;23.25;;;10.95;;
56455;SDS011;42354;53.218;6.564;2023-11-22T10:59:59;21.08;;;11.07;;
56455;SDS011;42354;53.218;6.564;2023-11-22T11:02:30;18.52;;;10.30;;
56455;SDS011;42354;53.218;6.564;2023-11-22T11:04:59;18.23;;;10.32;;
56455;SDS011;42354;53.218;6.564;2023-11-22T11:07:28;20.52;;;8.88;;
56455;SDS011;42354;53.218;6.564;2023-11-22T11:09:55;15.25;;;8.98;;
56455;SDS011;42354;53.218;6.564;2023-11-22T11:12:22;18.58;;;9.25;;
56455;SDS011;42354;53.218;6.564;2023-11-22T11:14:49;14.70;;;8.43;;
56455;SDS011;42354;53.218;6.564;2023-11-22T11:17:15;15.90;;;8.90;;
56455;SDS011;42354;53.218;6.564;2023-11-22T11:19:42;14.10;;;8.20;;
56455;SDS011;42354;53.218;6.564;2023-11-22T11:22:10;15.07;;;7.75;;
56455;SDS011;42354;53.218;6.564;2023-11-22T11:24:39;12.85;;;7.93;;
56455;SDS011;42354;53.218;6.564;2023-11-22T11:27:09;12.80;;;7.32;;
56455;SDS011;42354;53.218;6.564;2023-11-22T11:29:35;13.85;;;7.60;;
56455;SDS011;42354;53.218;6.564;2023-11-22T11:32:09;13.55;;;7.50;;
56455;SDS011;42354;53.218;6.564;2023-11-22T11:34:48;14.07;;;7.72;;
56455;SDS011;42354;53.218;6.564;2023-11-22T11:37:15;11.52;;;6.85;;
56455;SDS011;42354;53.218;6.564;2023-11-22T11:39:42;12.68;;;6.80;;
56455;SDS011;42354;53.218;6.564;2023-11-22T11:42:08;13.23;;;7.35;;
56455;SDS011;42354;53.218;6.564;2023-11-22T11:44:50;13.93;;;7.05;;
56455;SDS011;42354;53.218;6.564;2023-11-22T11:47:27;10.13;;;6.53;;
56455;SDS011;42354;53.218;6.564;2023-11-22T11:49:54;12.32;;;7.18;;
56455;SDS011;42354;53.218;6.564;2023-11-22T11:52:21;10.90;;;6.70;;
56455;SDS011;42354;53.218;6.564;2023-11-22T11:54:46;10.82;;;6.60;;
56455;SDS011;42354;53.218;6.564;2023-11-22T11:57:12;12.48;;;6.93;;
56455;SDS011;42354;53.218;6.564;2023-11-22T11:59:37;11.48;;;6.82;;
56455;SDS011;42354;53.218;6.564;2023-11-22T12:02:03;14.63;;;6.88;;
56455;SDS011;42354;53.218;6.564;2023-11-22T12:04:33;14.35;;;7.07;;
56455;SDS011;42354;53.218;6.564;2023-11-22T12:06:59;10.98;;;7.05;;
56455;SDS011;42354;53.218;6.564;2023-11-22T12:09:24;12.75;;;7.18;;
56455;SDS011;42354;53.218;6.564;2023-11-22T12:11:51;10.43;;;6.47;;
56455;SDS011;42354;53.218;6.564;2023-11-22T12:14:18;12.10;;;6.45;;
56455;SDS011;42354;53.218;6.564;2023-11-22T12:16:45;9.90;;;6.13;;
56455;SDS011;42354;53.218;6.564;2023-11-22T12:19:20;12.75;;;6.72;;
56455;SDS011;42354;53.218;6.564;2023-11-22T12:21:47;11.40;;;6.32;;
56455;SDS011;42354;53.218;6.564;2023-11-22T12:24:13;12.35;;;6.82;;
56455;SDS011;42354;53.218;6.564;2023-11-22T12:26:44;12.13;;;6.63;;
56455;SDS011;42354;53.218;6.564;2023-11-22T12:29:12;11.77;;;6.65;;
56455;SDS011;42354;53.218;6.564;2023-11-22T12:31:46;12.90;;;7.25;;
56455;SDS011;42354;53.218;6.564;2023-11-22T12:34:15;14.48;;;7.13;;
56455;SDS011;42354;53.218;6.564;2023-11-22T12:36:41;13.05;;;6.60;;
56455;SDS011;42354;53.218;6.564;2023-11-22T12:39:08;10.75;;;6.65;;
56455;SDS011;42354;53.218;6.564;2023-11-22T12:41:41;10.57;;;6.43;;
56455;SDS011;42354;53.218;6.564;2023-11-22T12:44:10;12.40;;;6.68;;
56455;SDS011;42354;53.218;6.564;2023-11-22T12:46:50;10.75;;;6.45;;
56455;SDS011;42354;53.218;6.564;2023-11-22T12:49:24;13.25;;;6.88;;
56455;SDS011;42354;53.218;6.564;2023-11-22T12:51:53;11.90;;;6.95;;
56455;SDS011;42354;53.218;6.564;2023-11-22T12:54:20;13.65;;;7.60;;
56455;SDS011;42354;53.218;6.564;2023-11-22T12:56:50;11.00;;;6.65;;
56455;SDS011;42354;53.218;6.564;2023-11-22T12:59:19;14.82;;;6.97;;
56455;SDS011;42354;53.218;6.564;2023-11-22T13:01:44;12.75;;;6.72;;
56455;SDS011;42354;53.218;6.564;2023-11-22T13:04:10;12.32;;;6.35;;
56455;SDS011;42354;53.218;6.564;2023-11-22T13:06:39;13.80;;;6.82;;
56455;SDS011;42354;53.218;6.564;2023-11-22T13:09:05;10.45;;;6.32;;
56455;SDS011;42354;53.218;6.564;2023-11-22T13:11:30;12.38;;;7.43;;
56455;SDS011;42354;53.218;6.564;2023-11-22T13:13:57;11.65;;;6.88;;
56455;SDS011;42354;53.218;6.564;2023-11-22T13:16:22;13.43;;;6.95;;
56455;SDS011;42354;53.218;6.564;2023-11-22T13:18:48;12.52;;;6.32;;
56455;SDS011;42354;53.218;6.564;2023-11-22T13:21:13;11.25;;;6.63;;
56455;SDS011;42354;53.218;6.564;2023-11-22T13:23:39;13.13;;;7.03;;
56455;SDS011;42354;53.218;6.564;2023-11-22T13:26:04;12.57;;;7.10;;
56455;SDS011;42354;53.218;6.564;2023-11-22T13:28:30;13.07;;;6.72;;
56455;SDS011;42354;53.218;6.564;2023-11-22T13:30:58;13.93;;;7.15;;
56455;SDS011;42354;53.218;6.564;2023-11-22T13:33:27;14.05;;;6.63;;
56455;SDS011;42354;53.218;6.564;2023-11-22T13:35:53;15.68;;;7.22;;
56455;SDS011;42354;53.218;6.564;2023-11-22T13:38:18;13.30;;;7.60;;
56455;SDS011;42354;53.218;6.564;2023-11-22T13:40:43;13.52;;;7.25;;
56455;SDS011;42354;53.218;6.564;2023-11-22T13:43:11;13.18;;;6.93;;
56455;SDS011;42354;53.218;6.564;2023-11-22T13:45:38;13.55;;;7.32;;
56455;SDS011;42354;53.218;6.564;2023-11-22T13:48:06;11.98;;;6.75;;
56455;SDS011;42354;53.218;6.564;2023-11-22T13:50:34;12.82;;;7.07;;
56455;SDS011;42354;53.218;6.564;2023-11-22T13:53:00;11.73;;;6.35;;
56455;SDS011;42354;53.218;6.564;2023-11-22T13:55:26;13.43;;;7.13;;
56455;SDS011;42354;53.218;6.564;2023-11-22T13:57:53;14.25;;;8.10;;
56455;SDS011;42354;53.218;6.564;2023-11-22T14:00:20;17.35;;;8.77;;
56455;SDS011;42354;53.218;6.564;2023-11-22T14:02:52;16.25;;;8.15;;
56455;SDS011;42354;53.218;6.564;2023-11-22T14:05:24;14.63;;;7.57;;
56455;SDS011;42354;53.218;6.564;2023-11-22T14:07:51;14.80;;;7.45;;
56455;SDS011;42354;53.218;6.564;2023-11-22T14:10:17;14.30;;;7.95;;
56455;SDS011;42354;53.218;6.564;2023-11-22T14:12:44;16.10;;;7.70;;
56455;SDS011;42354;53.218;6.564;2023-11-22T14:15:13;12.68;;;7.10;;
56455;SDS011;42354;53.218;6.564;2023-11-22T14:17:38;15.10;;;7.78;;
56455;SDS011;42354;53.218;6.564;2023-11-22T14:20:09;14.57;;;8.95;;
56455;SDS011;42354;53.218;6.564;2023-11-22T14:22:36;14.90;;;7.93;;
56455;SDS011;42354;53.218;6.564;2023-11-22T14:25:02;14.50;;;8.32;;